Time;durP1;ratioP1;P1;durP2;ratioP2;P2;SDS_P1;SDS_P2;PMS_P1;PMS_P2;Temp;Humidity;BMP_temperature;BMP_pressure;BME280_temperature;BME280_humidity;BME280_pressure;Samples;Min_cycle;Max_cycle;Signal;HPM_P1;HPM_P2
2022/08/27 00:01:02;;;;;;;18.90;11.90;;;;;;;31.82;61.54;99859.22;109557;1263;22127;-77
2022/08/27 00:03:36;;;;;;;15.20;11.70;;;;;;;31.78;61.95;99860.92;109493;1264;22357;-80
2022/08/27 00:06:06;;;;;;;14.10;10.60;;;;;;;31.25;64.24;99856.02;109284;1264;22350;-78
2022/08/27 00:08:35;;;;;;;13.80;10.70;;;;;;;31.02;65.41;99856.29;109350;1264;24390;-79
2022/08/27 00:11:05;;;;;;;32.90;10.80;;;;;;;31.25;65.04;99861.08;109141;1268;21984;-77
2022/08/27 00:13:35;;;;;;;15.30;9.90;;;;;;;31.81;62.34;99851.84;108733;1273;22112;-78
2022/08/27 00:16:07;;;;;;;17.30;11.40;;;;;;;31.89;61.74;99845.75;108720;1270;21984;-77
2022/08/27 00:18:38;;;;;;;17.80;11.80;;;;;;;31.89;61.35;99841.98;108861;1270;21995;-78
2022/08/27 00:21:08;;;;;;;15.80;11.20;;;;;;;31.69;62.42;99841.33;108774;1270;21986;-77
2022/08/27 00:23:37;;;;;;;17.70;11.60;;;;;;;31.55;62.89;99841.55;108471;1275;23011;-77
2022/08/27 00:26:09;;;;;;;19.90;11.50;;;;;;;31.52;63.22;99839.55;108421;1273;21961;-79
2022/08/27 00:28:41;;;;;;;17.60;11.20;;;;;;;31.66;62.82;99840.06;108613;1272;23773;-79
2022/08/27 00:31:10;;;;;;;;;;;;;;;31.08;64.63;99837.70;108698;1273;21988;-78
2022/08/27 00:33:43;;;;;;;17.80;10.80;;;;;;;30.76;66.18;99837.52;108676;1273;21996;-79
2022/08/27 00:36:13;;;;;;;13.30;10.90;;;;;;;30.66;66.88;99838.38;108682;1267;21980;-78
2022/08/27 00:38:42;;;;;;;16.40;10.40;;;;;;;30.69;66.41;99839.08;109069;1264;21976;-78
2022/08/27 00:41:12;;;;;;;19.20;11.50;;;;;;;30.68;66.57;99843.45;109498;1263;23610;-78
2022/08/27 00:43:58;;;;;;;13.80;10.10;;;;;;;30.66;66.83;99841.02;109285;1263;23616;-78
2022/08/27 00:46:45;;;;;;;15.90;10.70;;;;;;;30.71;66.45;99841.92;109538;1264;22083;-77
2022/08/27 00:49:23;;;;;;;14.90;12.00;;;;;;;30.65;66.11;99844.02;109868;1257;23629;-80
2022/08/27 00:52:10;;;;;;;13.70;10.20;;;;;;;30.58;66.01;99851.21;109887;1261;23781;-78
2022/08/27 00:54:40;;;;;;;19.80;10.20;;;;;;;30.56;66.09;99853.45;109558;1263;21972;-78
2022/08/27 00:57:09;;;;;;;12.70;10.30;;;;;;;30.63;65.58;99848.73;109738;1261;23723;-78
2022/08/27 00:59:40;;;;;;;13.30;11.20;;;;;;;30.63;65.41;99844.58;109382;1263;22990;-78
2022/08/27 01:02:19;;;;;;;;;;;;;;;30.65;65.68;99840.27;109132;1267;22737;-78
2022/08/27 01:05:01;;;;;;;16.30;9.90;;;;;;;30.80;64.84;99837.34;109111;1267;21997;-78
2022/08/27 01:07:37;;;;;;;13.80;10.20;;;;;;;30.77;64.82;99836.90;108961;1268;22171;-78
2022/08/27 01:10:13;;;;;;;16.30;12.60;;;;;;;30.74;64.78;99833.08;109163;1263;21989;-77
2022/08/27 01:12:43;;;;;;;14.90;11.50;;;;;;;30.62;64.79;99830.98;109265;1267;21994;-78
2022/08/27 01:15:25;;;;;;;16.00;11.90;;;;;;;30.64;64.53;99832.60;109263;1265;21986;-78
2022/08/27 01:17:59;;;;;;;14.10;11.60;;;;;;;30.72;64.05;99836.59;108898;1270;21999;-78
2022/08/27 01:20:58;;;;;;;16.90;13.70;;;;;;;30.75;63.98;99842.70;108978;1263;23685;-78
2022/08/27 01:23:38;;;;;;;16.20;13.30;;;;;;;30.76;63.97;99849.41;109589;1264;21985;-78
2022/08/27 01:26:12;;;;;;;13.20;11.00;;;;;;;30.75;64.07;99851.42;109418;1265;21977;-78
2022/08/27 01:28:42;;;;;;;16.90;12.30;;;;;;;30.77;63.88;99846.86;109256;1264;21977;-79
2022/08/27 01:31:12;;;;;;;16.70;13.20;;;;;;;30.74;63.84;99842.93;109538;1262;21979;-79
2022/08/27 01:34:00;;;;;;;18.10;12.60;;;;;;;30.74;63.55;99846.56;109673;1261;24247;-79
2022/08/27 01:36:30;;;;;;;14.30;11.40;;;;;;;30.65;64.02;99849.98;109268;1262;21992;-78
2022/08/27 01:39:00;;;;;;;13.00;11.60;;;;;;;30.60;64.61;99851.79;108810;1270;23152;-79
2022/08/27 01:41:30;;;;;;;17.30;12.10;;;;;;;30.58;65.01;99853.05;108922;1269;22032;-79
2022/08/27 01:43:59;;;;;;;18.10;11.80;;;;;;;30.48;65.29;99846.83;108962;1270;23800;-79
2022/08/27 01:46:29;;;;;;;14.20;11.50;;;;;;;30.43;65.56;99845.42;108986;1270;21982;-78
2022/08/27 01:48:59;;;;;;;18.30;13.20;;;;;;;30.45;65.61;99846.30;108953;1270;23082;-79
2022/08/27 01:51:30;;;;;;;14.70;12.40;;;;;;;30.39;65.69;99850.27;108987;1268;23778;-79
2022/08/27 01:53:59;;;;;;;18.30;13.50;;;;;;;30.44;65.61;99853.86;109074;1262;24581;-79
2022/08/27 01:56:32;;;;;;;24.40;14.50;;;;;;;30.41;65.88;99856.81;109761;1256;21973;-78
2022/08/27 01:59:08;;;;;;;14.30;12.80;;;;;;;30.37;66.06;99859.36;110416;1255;22714;-79
2022/08/27 02:01:38;;;;;;;14.60;13.10;;;;;;;30.37;65.81;99858.95;109432;1264;21977;-79
2022/08/27 02:04:08;;;;;;;13.60;12.40;;;;;;;30.34;65.68;99857.16;109448;1264;22531;-77
2022/08/27 02:06:39;;;;;;;18.40;14.50;;;;;;;30.27;66.06;99856.03;109049;1270;23106;-79
2022/08/27 02:09:11;;;;;;;17.30;13.90;;;;;;;30.28;65.48;99854.52;109182;1267;23621;-79
2022/08/27 02:11:42;;;;;;;16.80;13.40;;;;;;;30.26;65.35;99855.36;108977;1267;23765;-80
2022/08/27 02:14:13;;;;;;;16.30;12.80;;;;;;;30.27;65.61;99857.66;108546;1273;21981;-79
2022/08/27 02:16:43;;;;;;;15.60;12.40;;;;;;;30.25;65.71;99859.73;108773;1272;22043;-78
2022/08/27 02:19:21;;;;;;;15.40;12.70;;;;;;;30.17;66.09;99860.45;108431;1276;23708;-78
2022/08/27 02:21:58;;;;;;;15.40;13.10;;;;;;;30.10;66.59;99858.87;108414;1276;23074;-78
2022/08/27 02:24:30;;;;;;;13.50;12.30;;;;;;;30.06;66.94;99849.77;108505;1273;22159;-78
2022/08/27 02:27:00;;;;;;;;;;;;;;;30.07;66.73;99849.62;108611;1273;21984;-78
2022/08/27 02:29:30;;;;;;;12.60;10.80;;;;;;;30.10;65.82;99847.36;108689;1273;23710;-78
2022/08/27 02:32:02;;;;;;;13.50;11.40;;;;;;;29.97;66.22;99847.20;108734;1267;21979;-79
2022/08/27 02:34:31;;;;;;;15.90;11.20;;;;;;;29.98;66.21;99847.45;108777;1273;21997;-78
2022/08/27 02:37:06;;;;;;;14.80;10.90;;;;;;;29.97;66.23;99846.52;108440;1276;24134;-78
2022/08/27 02:39:37;;;;;;;12.70;11.20;;;;;;;30.01;65.89;99842.85;108477;1276;22039;-78
2022/08/27 02:42:12;;;;;;;18.20;12.50;;;;;;;30.05;65.38;99841.89;108401;1279;23699;-78
2022/08/27 02:44:42;;;;;;;13.20;11.50;;;;;;;30.06;65.40;99838.66;108079;1276;23758;-77
2022/08/27 02:47:11;;;;;;;16.00;11.30;;;;;;;30.06;65.20;99838.27;108411;1276;23692;-77
2022/08/27 02:49:42;;;;;;;13.00;11.70;;;;;;;30.05;65.42;99837.88;108501;1276;21993;-78
2022/08/27 02:52:14;;;;;;;13.00;11.30;;;;;;;29.96;65.49;99841.08;108497;1274;23655;-78
2022/08/27 02:54:56;;;;;;;13.80;11.90;;;;;;;29.87;66.03;99834.20;108845;1267;22020;-79
2022/08/27 02:57:26;;;;;;;13.60;11.30;;;;;;;29.94;65.84;99832.67;108982;1267;23140;-79
2022/08/27 02:59:56;;;;;;;15.20;10.90;;;;;;;29.90;66.19;99830.64;108845;1268;22083;-79
2022/08/27 03:02:25;;;;;;;11.90;10.60;;;;;;;29.97;65.36;99831.84;109113;1263;22753;-78
2022/08/27 03:05:04;;;;;;;15.70;11.80;;;;;;;29.99;65.26;99830.60;109618;1263;21947;-80
2022/08/27 03:07:34;;;;;;;14.20;11.30;;;;;;;30.03;64.60;99828.71;109899;1259;22737;-79
2022/08/27 03:10:05;;;;;;;13.30;11.60;;;;;;;29.96;64.69;99826.64;109156;1267;22143;-79
2022/08/27 03:12:35;;;;;;;13.20;11.70;;;;;;;29.94;65.05;99828.04;109144;1267;21979;-79
2022/08/27 03:15:07;;;;;;;20.30;12.40;;;;;;;29.90;65.04;99832.16;109104;1267;23210;-78
2022/08/27 03:20:26;;;;;;;13.30;11.90;;;;;;;29.97;64.64;99831.26;108317;1276;21984;-80
2022/08/27 03:22:55;;;;;;;13.80;11.10;;;;;;;30.04;64.29;99828.90;108059;1278;22815;-78
2022/08/27 03:25:25;;;;;;;20.70;12.80;;;;;;;29.92;64.52;99823.15;108034;1279;23790;-77
2022/08/27 03:27:54;;;;;;;15.60;11.50;;;;;;;29.80;64.58;99820.98;108118;1276;22923;-77
2022/08/27 03:30:25;;;;;;;23.30;11.50;;;;;;;29.76;64.80;99817.33;108435;1276;22132;-78
2022/08/27 03:32:54;;;;;;;14.30;11.80;;;;;;;29.71;64.93;99816.62;108613;1276;22014;-78
2022/08/27 03:35:26;;;;;;;;;;;;;;;29.66;64.92;99819.30;108505;1270;22427;-77
2022/08/27 03:37:58;;;;;;;12.80;11.60;;;;;;;29.60;65.01;99819.88;108678;1273;21997;-78
2022/08/27 03:40:28;;;;;;;15.70;10.90;;;;;;;29.46;65.58;99826.30;108681;1273;22007;-78
2022/08/27 03:42:57;;;;;;;13.40;11.00;;;;;;;29.35;66.24;99825.42;108729;1270;21966;-77
2022/08/27 03:45:27;;;;;;;13.90;11.60;;;;;;;29.33;66.35;99823.44;108826;1267;21978;-77
2022/08/27 03:47:57;;;;;;;12.10;10.90;;;;;;;29.29;66.67;99823.20;108999;1267;23603;-78
2022/08/27 03:50:26;;;;;;;18.30;12.30;;;;;;;29.27;66.97;99826.73;109100;1267;23002;-78
2022/08/27 03:52:57;;;;;;;15.40;12.10;;;;;;;29.27;67.02;99826.11;108673;1273;23631;-78
2022/08/27 03:55:27;;;;;;;20.90;13.40;;;;;;;29.23;67.69;99825.66;108746;1270;21982;-78
2022/08/27 03:57:56;;;;;;;13.80;12.40;;;;;;;29.26;67.68;99827.72;108688;1273;23624;-78
2022/08/27 04:00:26;;;;;;;17.70;13.00;;;;;;;29.37;66.89;99824.39;108661;1273;22122;-78
2022/08/27 04:02:55;;;;;;;17.50;12.90;;;;;;;29.31;66.64;99825.80;108754;1268;21977;-78
2022/08/27 04:05:24;;;;;;;14.90;12.70;;;;;;;29.26;66.78;99827.68;109052;1267;22863;-78
2022/08/27 04:07:54;;;;;;;18.30;13.40;;;;;;;29.27;67.37;99827.81;108870;1267;23095;-78
2022/08/27 04:10:24;;;;;;;18.00;14.30;;;;;;;29.34;66.84;99832.55;109137;1260;22941;-79
2022/08/27 04:12:53;;;;;;;16.80;13.00;;;;;;;29.41;66.36;99834.33;109788;1261;22050;-78
2022/08/27 04:15:25;;;;;;;19.10;13.70;;;;;;;29.46;66.03;99840.45;109377;1265;22010;-80
2022/08/27 04:17:56;;;;;;;16.40;14.70;;;;;;;29.42;66.13;99842.40;109206;1266;21991;-78
2022/08/27 04:20:26;;;;;;;18.40;13.90;;;;;;;29.41;65.83;99844.11;109162;1267;21973;-78
2022/08/27 04:23:06;;;;;;;17.80;13.80;;;;;;;29.33;66.08;99842.05;109458;1262;22063;-78
2022/08/27 04:25:43;;;;;;;16.80;13.70;;;;;;;29.28;66.57;99846.45;109650;1262;21986;-77
2022/08/27 04:28:15;;;;;;;15.10;13.70;;;;;;;29.26;66.61;99846.75;109640;1260;23736;-79
2022/08/27 04:30:46;;;;;;;18.30;14.50;;;;;;;29.29;66.26;99850.07;109939;1260;21971;-79
2022/08/27 04:33:18;;;;;;;32.60;14.70;;;;;;;29.23;66.65;99848.89;110055;1256;24269;-83
2022/08/27 04:36:05;;;;;;;16.10;14.00;;;;;;;29.29;66.72;99850.45;110300;1255;23602;-83
2022/08/27 04:38:37;;;;;;;15.10;13.40;;;;;;;29.42;66.24;99850.95;110207;1259;22000;-83
2022/08/27 04:41:18;;;;;;;16.70;12.80;;;;;;;29.33;66.81;99850.75;109463;1266;21976;-82
2022/08/27 04:43:55;;;;;;;23.10;13.70;;;;;;;29.30;66.90;99852.23;109465;1265;21982;-82
2022/08/27 04:46:29;;;;;;;16.50;14.10;;;;;;;29.37;66.35;99858.13;109345;1265;22003;-81
2022/08/27 04:49:03;;;;;;;20.60;14.00;;;;;;;29.35;65.99;99863.87;109398;1266;21988;-82
2022/08/27 04:51:40;;;;;;;14.90;13.20;;;;;;;29.34;65.85;99861.40;109517;1263;22017;-82
2022/08/27 04:54:11;;;;;;;16.40;14.60;;;;;;;29.36;66.04;99863.52;109255;1264;22463;-83
2022/08/27 04:56:42;;;;;;;17.80;13.20;;;;;;;29.42;66.07;99864.39;109573;1260;24033;-82
2022/08/27 04:59:14;;;;;;;15.90;13.50;;;;;;;29.42;66.19;99861.89;109908;1260;22980;-81
2022/08/27 05:01:45;;;;;;;21.00;12.80;;;;;;;29.41;65.90;99861.84;109701;1260;23082;-77
2022/08/27 05:04:20;;;;;;;15.00;12.20;;;;;;;29.46;65.75;99861.79;109197;1264;22965;-81
2022/08/27 05:06:53;;;;;;;16.50;13.60;;;;;;;29.43;65.25;99859.80;109752;1262;22071;-77
2022/08/27 05:09:27;;;;;;;17.30;12.80;;;;;;;29.40;65.73;99858.32;109236;1265;22244;-77
2022/08/27 05:11:57;;;;;;;15.30;11.80;;;;;;;29.43;65.74;99860.98;109436;1263;22455;-78
2022/08/27 05:14:29;;;;;;;17.40;13.40;;;;;;;29.32;66.14;99860.36;108974;1267;22771;-78
2022/08/27 05:16:59;;;;;;;14.90;12.40;;;;;;;29.18;66.85;99859.02;108876;1268;21983;-77
2022/08/27 05:19:32;;;;;;;16.80;12.20;;;;;;;29.16;67.27;99859.06;109007;1269;23136;-76
2022/08/27 05:22:02;;;;;;;14.40;13.00;;;;;;;29.20;67.33;99857.21;108746;1270;21981;-78
2022/08/27 05:24:34;;;;;;;14.20;12.20;;;;;;;29.34;66.94;99858.89;108775;1270;22797;-78
2022/08/27 05:27:10;;;;;;;16.80;12.10;;;;;;;29.39;66.89;99862.81;108706;1270;21982;-78
2022/08/27 05:29:43;;;;;;;15.30;12.50;;;;;;;29.43;66.71;99867.24;108855;1270;21991;-78
2022/08/27 05:32:21;;;;;;;19.50;13.30;;;;;;;29.45;66.71;99865.67;108844;1267;22027;-78
2022/08/27 05:35:01;;;;;;;14.90;12.50;;;;;;;29.56;66.25;99867.45;109161;1267;21990;-78
2022/08/27 05:37:45;;;;;;;19.30;13.10;;;;;;;29.63;66.13;99864.94;109088;1265;24306;-78
2022/08/27 05:40:32;;;;;;;18.00;12.80;;;;;;;29.78;65.92;99867.09;109227;1260;22118;-78
2022/08/27 05:43:11;;;;;;;17.80;13.50;;;;;;;29.83;66.13;99867.41;108705;1269;21988;-77
2022/08/27 05:45:59;;;;;;;16.20;14.60;;;;;;;29.84;66.25;99869.73;108679;1270;22754;-78
2022/08/27 05:48:34;;;;;;;14.60;12.50;;;;;;;29.95;66.13;99871.61;108847;1267;21982;-78
2022/08/27 05:51:27;;;;;;;15.10;13.50;;;;;;;30.12;65.73;99872.06;108894;1267;23585;-77
2022/08/27 05:54:09;;;;;;;17.00;12.00;;;;;;;30.28;65.75;99870.23;108857;1267;23590;-78
2022/08/27 05:56:48;;;;;;;19.80;13.00;;;;;;;30.34;65.74;99868.23;108910;1267;21995;-79
2022/08/27 06:06:12;;;;;;;17.20;10.30;;;;;;;31.27;64.68;99864.36;110297;1258;21971;-80
2022/08/27 06:08:54;;;;;;;14.90;11.40;;;;;;;31.54;64.29;99866.14;110128;1255;21991;-79
2022/08/27 06:11:32;;;;;;;16.10;11.10;;;;;;;31.90;63.95;99868.48;110080;1255;23151;-83
2022/08/27 06:14:07;;;;;;;;;;;;;;;32.18;62.03;99869.67;110153;1260;21963;-81
2022/08/27 06:16:44;;;;;;;15.50;10.00;;;;;;;32.53;61.04;99871.11;109188;1266;22006;-79
2022/08/27 06:19:23;;;;;;;;;;;;;;;32.82;59.61;99863.63;108888;1267;21982;-79
2022/08/27 06:22:03;;;;;;;13.90;10.50;;;;;;;33.30;58.49;99861.88;109255;1267;23850;-79
2022/08/27 06:25:04;;;;;;;16.00;10.10;;;;;;;33.66;57.78;99859.30;108875;1270;23026;-78
2022/08/27 06:27:34;;;;;;;13.00;10.00;;;;;;;33.93;56.20;99859.27;108346;1276;23318;-79
2022/08/27 06:30:08;;;;;;;11.90;9.20;;;;;;;34.07;55.06;99852.90;108444;1276;23075;-79
2022/08/27 06:32:37;;;;;;;15.10;9.60;;;;;;;34.38;54.51;99845.20;108747;1270;23563;-78
2022/08/27 06:35:17;;;;;;;12.80;9.00;;;;;;;34.74;53.86;99840.30;108959;1264;23049;-77
2022/08/27 06:37:59;;;;;;;9.60;8.70;;;;;;;35.03;52.45;99836.48;108829;1267;22176;-76
2022/08/27 06:40:34;;;;;;;12.60;10.00;;;;;;;35.42;51.83;99844.22;108816;1268;23723;-75
2022/08/27 06:43:09;;;;;;;10.10;8.90;;;;;;;35.65;50.93;99847.45;107393;1270;1935250;-81
2022/08/27 06:45:39;;;;;;;15.80;9.30;;;;;;;35.80;50.15;99850.08;109229;1264;21988;-82
2022/08/27 06:48:20;;;;;;;14.40;10.20;;;;;;;36.05;49.04;99853.16;109287;1265;23774;-81
2022/08/27 06:50:54;;;;;;;16.40;9.40;;;;;;;36.31;48.98;99852.67;109382;1267;23093;-81
2022/08/27 06:53:25;;;;;;;11.80;9.80;;;;;;;36.49;48.73;99855.98;109081;1267;23734;-80
2022/08/27 06:55:54;;;;;;;16.60;9.80;;;;;;;36.65;48.06;99858.89;109377;1261;21981;-80
2022/08/27 06:58:27;;;;;;;11.30;8.50;;;;;;;36.92;47.45;99864.85;109317;1267;24314;-81
2022/08/27 07:01:02;;;;;;;14.40;9.00;;;;;;;37.09;46.83;99876.35;108823;1273;23081;-81
2022/08/27 07:03:45;;;;;;;13.70;9.40;;;;;;;37.37;46.57;99892.33;108644;1278;22014;-80
2022/08/27 07:06:17;;;;;;;12.30;8.70;;;;;;;37.80;45.66;99887.62;108685;1279;22820;-80
2022/08/27 07:08:56;;;;;;;11.70;9.20;;;;;;;38.09;43.49;99881.67;108306;1281;22121;-80
2022/08/27 07:11:43;;;;;;;11.70;8.10;;;;;;;38.21;42.30;99890.08;108340;1279;22000;-80
2022/08/27 07:14:20;;;;;;;;;;;;;;;38.54;42.10;99893.37;108689;1277;22031;-80
2022/08/27 07:16:51;;;;;;;12.30;8.70;;;;;;;38.97;41.55;99893.33;108459;1278;21978;-80
2022/08/27 07:19:26;;;;;;;12.20;9.00;;;;;;;39.32;40.12;99895.92;108533;1273;23070;-80
2022/08/27 07:21:58;;;;;;;13.00;8.20;;;;;;;39.51;40.58;99899.98;108730;1270;22991;-80
2022/08/27 07:24:28;;;;;;;17.40;8.50;;;;;;;39.82;40.30;99892.64;108905;1270;22898;-80
2022/08/27 07:27:00;;;;;;;10.50;7.60;;;;;;;39.82;37.96;99881.85;109052;1269;23676;-80
2022/08/27 07:29:31;;;;;;;15.30;8.50;;;;;;;39.79;37.30;99880.70;109114;1267;22050;-79
2022/08/27 07:32:01;;;;;;;9.60;7.70;;;;;;;39.84;37.57;99873.73;108882;1267;22777;-79
2022/08/27 07:34:30;;;;;;;13.10;7.40;;;;;;;39.85;37.41;99874.14;109635;1256;23790;-79
2022/08/27 07:37:01;;;;;;;12.30;7.90;;;;;;;39.97;36.76;99879.55;110083;1255;21963;-80
2022/08/27 07:39:38;;;;;;;10.70;8.40;;;;;;;40.23;36.81;99878.92;109210;1264;23703;-80
2022/08/27 07:44:58;;;;;;;10.00;7.60;;;;;;;40.78;35.24;99884.11;109454;1261;23099;-79
2022/08/27 07:47:31;;;;;;;9.40;7.40;;;;;;;40.83;34.44;99884.14;108918;1267;21980;-80
2022/08/27 07:50:00;;;;;;;10.80;7.10;;;;;;;40.50;32.45;99878.00;108969;1268;22058;-80
2022/08/27 07:52:29;;;;;;;8.80;7.70;;;;;;;40.29;33.06;99877.64;109026;1267;22000;-79
2022/08/27 07:54:58;;;;;;;9.10;7.80;;;;;;;40.44;33.31;99875.96;108967;1267;22455;-80
2022/08/27 07:57:27;;;;;;;16.70;7.70;;;;;;;40.60;32.73;99874.37;109313;1261;22965;-80
2022/08/27 07:59:57;;;;;;;8.70;7.10;;;;;;;40.74;32.27;99869.52;109879;1261;22031;-81
2022/08/27 08:02:26;;;;;;;17.60;8.70;;;;;;;40.84;31.86;99871.73;109974;1261;22067;-81
2022/08/27 08:04:58;;;;;;;8.10;7.20;;;;;;;41.11;31.29;99873.90;109928;1255;24394;-79
2022/08/27 08:07:33;;;;;;;11.80;7.60;;;;;;;41.06;31.18;99876.98;110300;1256;22413;-79
2022/08/27 08:10:06;;;;;;;13.80;7.50;;;;;;;41.22;31.12;99874.92;110436;1256;22072;-80
2022/08/27 08:12:37;;;;;;;11.10;7.20;;;;;;;41.30;30.53;99878.94;109869;1261;22833;-78
2022/08/27 08:15:13;;;;;;;10.80;6.80;;;;;;;41.50;31.01;99882.23;109797;1261;24298;-79
2022/08/27 08:17:43;;;;;;;11.60;8.10;;;;;;;41.74;30.25;99881.31;109765;1260;23665;-80
2022/08/27 08:20:23;;;;;;;15.50;7.60;;;;;;;41.76;30.04;99878.15;109611;1261;21982;-79
2022/08/27 08:23:16;;;;;;;9.60;7.10;;;;;;;41.89;29.67;99879.39;109561;1260;21973;-79
2022/08/27 08:25:53;;;;;;;13.60;6.90;;;;;;;41.75;28.82;99885.42;109290;1261;21969;-80
2022/08/27 08:28:37;;;;;;;9.70;6.40;;;;;;;41.66;29.34;99889.67;109570;1261;23654;-79
2022/08/27 08:31:08;;;;;;;10.70;7.30;;;;;;;41.87;29.95;99893.42;110090;1256;21977;-79
2022/08/27 08:33:39;;;;;;;11.20;6.70;;;;;;;42.24;29.85;99891.70;110026;1256;21953;-79
2022/08/27 08:36:14;;;;;;;13.60;7.10;;;;;;;42.58;28.55;99889.77;110343;1256;23030;-81
2022/08/27 08:38:46;;;;;;;12.50;6.60;;;;;;;42.95;27.81;99892.23;110235;1256;22826;-80
2022/08/27 08:41:51;;;;;;;12.20;6.80;;;;;;;42.98;28.01;99899.46;110232;1256;21993;-80
2022/08/27 08:44:40;;;;;;;10.80;6.80;;;;;;;42.95;27.57;99897.40;110490;1256;23689;-80
2022/08/27 08:47:18;;;;;;;10.20;7.00;;;;;;;42.91;28.22;99895.89;110440;1256;21969;-80
2022/08/27 08:50:13;;;;;;;9.30;6.80;;;;;;;42.95;28.43;99897.23;110684;1256;23786;-80
2022/08/27 08:53:18;;;;;;;10.20;6.90;;;;;;;43.20;28.37;99900.08;110420;1256;23596;-79
2022/08/27 08:55:55;;;;;;;10.10;5.90;;;;;;;43.40;27.39;99893.52;110212;1256;23610;-77
2022/08/27 08:59:15;;;;;;;8.80;6.60;;;;;;;43.30;26.54;99890.22;110274;1256;23075;-80
2022/08/27 09:01:48;;;;;;;12.80;7.00;;;;;;;43.31;26.94;99891.56;109675;1259;21972;-80
2022/08/27 09:04:19;;;;;;;9.00;6.70;;;;;;;43.48;26.98;99889.07;109835;1259;21971;-80
2022/08/27 09:07:01;;;;;;;12.80;6.30;;;;;;;43.49;26.25;99885.80;109523;1259;23866;-79
2022/08/27 09:09:55;;;;;;;12.80;6.80;;;;;;;43.32;26.43;99887.35;109568;1259;22959;-78
2022/08/27 09:12:32;;;;;;;7.90;6.40;;;;;;;43.23;26.77;99890.23;109020;1267;21975;-81
2022/08/27 09:15:17;;;;;;;8.40;6.50;;;;;;;43.21;26.91;99891.36;109106;1267;21960;-79
2022/08/27 09:18:15;;;;;;;10.40;6.00;;;;;;;43.19;26.52;99893.98;109081;1266;23053;-80
2022/08/27 09:20:50;;;;;;;9.80;6.00;;;;;;;43.09;26.48;99890.73;109173;1261;22048;-80
2022/08/27 09:23:38;;;;;;;7.20;6.00;;;;;;;43.24;27.08;99893.02;109437;1263;22005;-78
2022/08/27 09:26:26;;;;;;;9.80;6.50;;;;;;;43.46;26.44;99887.87;109703;1262;23693;-79
2022/08/27 09:29:16;;;;;;;12.60;6.70;;;;;;;43.76;26.40;99888.71;109198;1267;23757;-80
2022/08/27 09:31:56;;;;;;;8.40;5.60;;;;;;;43.81;25.35;99884.73;109611;1261;23586;-79
2022/08/27 09:34:36;;;;;;;7.10;5.60;;;;;;;43.50;24.72;99879.03;109161;1267;24310;-79
2022/08/27 09:37:14;;;;;;;8.60;5.50;;;;;;;43.35;25.64;99879.79;108783;1267;23769;-79
2022/08/27 09:40:15;;;;;;;5.40;4.90;;;;;;;43.56;25.62;99884.41;108876;1268;23059;-78
2022/08/27 09:42:57;;;;;;;10.50;5.70;;;;;;;43.67;24.67;99882.80;108892;1267;21987;-78
2022/08/27 09:45:30;;;;;;;9.80;5.80;;;;;;;43.50;24.69;99880.71;108590;1273;23055;-78
2022/08/27 09:48:15;;;;;;;8.00;6.00;;;;;;;43.57;25.04;99875.52;109043;1268;23564;-82
2022/08/27 09:51:01;;;;;;;13.50;5.40;;;;;;;43.57;24.79;99870.61;108691;1273;23076;-77
2022/08/27 09:53:56;;;;;;;8.00;5.70;;;;;;;43.54;25.00;99865.14;108785;1267;22069;-79
2022/08/27 09:56:35;;;;;;;8.60;5.70;;;;;;;43.54;24.48;99863.54;108789;1267;22096;-78
2022/08/27 09:59:09;;;;;;;8.60;5.70;;;;;;;43.41;24.57;99858.97;108649;1267;122564;-80
2022/08/27 10:02:14;;;;;;;11.40;5.80;;;;;;;43.60;25.26;99863.27;109128;1267;23109;-78
2022/08/27 10:04:49;;;;;;;7.60;5.60;;;;;;;43.89;25.22;99863.71;108765;1273;22063;-77
2022/08/27 10:07:52;;;;;;;8.20;5.50;;;;;;;44.12;24.82;99861.19;108835;1270;21998;-79
2022/08/27 10:10:51;;;;;;;11.30;6.00;;;;;;;44.03;24.43;99864.92;109372;1261;21978;-80
2022/08/27 10:13:39;;;;;;;9.20;6.20;;;;;;;43.78;25.03;99861.53;109579;1262;22114;-80
2022/08/27 10:16:45;;;;;;;11.30;5.40;;;;;;;43.79;25.10;99860.95;109243;1267;21994;-79
2022/08/27 10:19:48;;;;;;;11.10;5.70;;;;;;;43.88;24.84;99859.17;108761;1272;23096;-80
2022/08/27 10:22:45;;;;;;;11.00;5.00;;;;;;;43.78;24.58;99857.79;108464;1273;21996;-79
2022/08/27 10:26:03;;;;;;;9.30;6.30;;;;;;;43.93;24.37;99857.96;108640;1273;21998;-78
2022/08/27 10:28:43;;;;;;;15.10;6.00;;;;;;;44.05;23.92;99854.33;108423;1273;23792;-80
2022/08/27 10:31:30;;;;;;;7.60;5.00;;;;;;;44.21;23.99;99852.23;108576;1276;21990;-80
2022/08/27 10:34:34;;;;;;;10.70;5.40;;;;;;;44.39;23.57;99851.32;108425;1276;22006;-79
2022/08/27 10:37:44;;;;;;;7.50;5.00;;;;;;;44.31;23.17;99844.76;108437;1273;21982;-79
2022/08/27 10:40:44;;;;;;;7.80;5.40;;;;;;;44.20;23.14;99845.14;108473;1276;23625;-78
2022/08/27 10:44:00;;;;;;;8.40;5.00;;;;;;;44.14;23.37;99842.41;108491;1270;22455;-79
2022/08/27 10:47:07;;;;;;;9.70;5.20;;;;;;;44.01;23.33;99844.96;109141;1267;21983;-79
2022/08/27 10:49:57;;;;;;;10.60;5.40;;;;;;;44.15;23.56;99840.81;109000;1267;22409;-79
2022/08/27 10:52:42;;;;;;;7.90;5.00;;;;;;;44.19;23.21;99841.59;109506;1264;23611;-80
2022/08/27 10:55:27;;;;;;;7.30;5.50;;;;;;;44.02;22.85;99839.80;109248;1264;22123;-79
2022/08/27 10:58:19;;;;;;;12.60;5.10;;;;;;;43.86;23.14;99839.23;109339;1266;22055;-79
2022/08/27 11:01:19;;;;;;;6.80;5.90;;;;;;;43.60;23.36;99838.08;110200;1258;21970;-80
2022/08/27 11:04:24;;;;;;;11.10;6.30;;;;;;;43.26;23.54;99835.04;109748;1262;21980;-81
2022/08/27 11:07:09;;;;;;;10.30;6.30;;;;;;;42.86;23.88;99832.98;109746;1262;21972;-78
2022/08/27 11:10:20;;;;;;;7.20;5.30;;;;;;;42.62;24.51;99835.04;109677;1262;22177;-78
2022/08/27 11:12:57;;;;;;;9.50;5.40;;;;;;;42.38;24.45;99832.72;109800;1261;21986;-79
2022/08/27 11:15:37;;;;;;;9.10;5.50;;;;;;;42.12;24.79;99833.09;109246;1267;22026;-82
2022/08/27 11:18:26;;;;;;;9.20;5.50;;;;;;;41.90;24.96;99834.55;109308;1267;22036;-80
2022/08/27 11:21:15;;;;;;;6.70;5.10;;;;;;;41.77;25.01;99832.75;109178;1267;23019;-80
2022/08/27 11:24:01;;;;;;;10.30;6.10;;;;;;;41.78;24.89;99831.09;108734;1270;22011;-81
2022/08/27 11:26:58;;;;;;;7.70;5.30;;;;;;;41.49;24.77;99827.88;109000;1270;21997;-83
2022/08/27 11:30:07;;;;;;;11.60;5.80;;;;;;;41.11;25.27;99829.27;108696;1276;22004;-81
2022/08/27 11:33:21;;;;;;;8.50;5.70;;;;;;;41.04;25.53;99825.59;108303;1279;22014;-80
2022/08/27 11:36:19;;;;;;;9.60;5.20;;;;;;;40.89;25.16;99825.55;108166;1280;22080;-80
2022/08/27 11:39:20;;;;;;;9.80;4.80;;;;;;;40.70;25.17;99822.02;108305;1280;22030;-81
2022/08/27 11:42:08;;;;;;;8.00;5.80;;;;;;;40.63;25.51;99822.13;108720;1267;23016;-79
2022/08/27 11:44:45;;;;;;;8.70;5.40;;;;;;;40.60;25.51;99815.77;109330;1267;23833;-79
2022/08/27 11:47:22;;;;;;;12.10;5.20;;;;;;;40.57;25.62;99814.86;108841;1267;24201;-78
2022/08/27 11:49:59;;;;;;;12.50;5.20;;;;;;;40.64;25.70;99809.08;109019;1268;22068;-81
2022/08/27 11:52:36;;;;;;;8.90;5.00;;;;;;;40.46;25.84;99810.66;109379;1267;22336;-80
2022/08/27 11:55:19;;;;;;;9.70;5.70;;;;;;;40.26;25.53;99807.26;108643;1270;23689;-78
2022/08/27 11:58:06;;;;;;;8.40;5.60;;;;;;;40.17;25.47;99801.55;108971;1270;21985;-78
2022/08/27 12:00:41;;;;;;;11.30;5.70;;;;;;;40.04;25.74;99799.35;108924;1271;22003;-80
2022/08/27 12:03:19;;;;;;;8.70;5.30;;;;;;;40.04;25.94;99801.09;108739;1270;23233;-81
2022/08/27 12:06:19;;;;;;;7.70;4.70;;;;;;;40.01;26.37;99797.04;109158;1270;23767;-81
2022/08/27 12:08:51;;;;;;;7.90;5.20;;;;;;;39.94;26.19;99792.86;108744;1264;23036;-79
2022/08/27 12:11:40;;;;;;;10.10;5.60;;;;;;;39.94;26.50;99792.30;109266;1264;21994;-79
2022/08/27 12:14:38;;;;;;;8.90;4.80;;;;;;;39.94;26.71;99791.52;110058;1257;22433;-79
2022/08/27 12:17:41;;;;;;;10.90;5.20;;;;;;;39.84;27.05;99786.91;110300;1256;23026;-80
2022/08/27 12:20:19;;;;;;;7.80;5.00;;;;;;;39.82;27.05;99782.30;110345;1256;22891;-81